Oakwood, VA (24631)

12:51 PM EDT on March 30, 2015 (GMT -0400)
Tazewell County | | Change Station
CLOSE
Current Station
Airport
Location: Richlands,
Elevation: 2651 ft
Nearby Weather Stations

Elev 2651 ft 37.06 °N, 81.80 °W | Updated 16 minutes ago

Overcast
Overcast
48 °F
Feels Like 48 °F
N
12
Wind Variable Wind from NW
Gusts 32 mph

Today
High -- | Low -- °F
--% Chance of Precip.
Yesterday
High -- | Low -- °F
Precip. -- in
7:16 AM 7:48 PM
Waxing Gibbous, 81% visible
Pressure 30.05 in
Visibility 10.0 miles
Clouds Mostly Cloudy 3800 ft
Mostly Cloudy 4700 ft
Dew Point 30 °F
Humidity 51%
Rainfall 0.02 in
Snow Depth Not available.
UV 5 out of 12
Pollen 7.00 out of 12
Air Quality Not available.
Flu Activity Not available.
METAR KJFZ 301635Z AUTO 31010G28KT 10SM BKN038 BKN047 09/M01 A3005 RMK AO2 T00881009

More Conditions Fewer Conditions

Pressure 30.05 in
Visibility 10.0 miles
Clouds Mostly Cloudy 3800 ft
Mostly Cloudy 4700 ft
Dew Point 30 °F
Humidity 51%
Rainfall 0.02 in
Snow Depth Not available.
UV 5 out of 12
Pollen 7.00 out of 12
Air Quality Not available.
Flu Activity Not available.
METAR KJFZ 301635Z AUTO 31010G28KT 10SM BKN038 BKN047 09/M01 A3005 RMK AO2 T00881009

More Conditions Fewer Conditions

10-Day Weather Forecast

Almanac

Astronomy

Mar. 30, 2015 Rise Set
Actual Time
Civil Twilight
Nautical Twilight
Astronomical Twilight
Moon
Length of Visible Light
Length of Day
Tomorrow will be .
, % of the Moon is Illuminated

Today's Extremes

State Highs State Lows

Community

WunderPhotos

Upload Photos

1,809,536 photos uploaded!

WunderBlogs® & News

Nearby

Air Quality

  Air Quality AQ Index Pollutant
Not available.

Snow Depth

Station Depth Elevation

Earthquake Activity

City Distance Mag. Time & Date
Minimum magnitude displayed is 2.5.

Coastal Water Temperatures

Place Temperature

Stations

Nearby Weather Stations

Station Location Temp. Windchill Dew Point Humidity Wind Precip. Elev Updated Type